createdAt,value
2023-06-30T00:00:33.598Z,71.32
2023-06-30T00:03:05.316Z,70.62
2023-06-30T00:05:34.147Z,69.64
2023-06-30T00:08:02.045Z,70.41
2023-06-30T00:10:30.001Z,69.82
2023-06-30T00:12:58.480Z,70.31
2023-06-30T00:15:26.411Z,71.24
2023-06-30T00:17:54.735Z,71.96
2023-06-30T00:20:25.451Z,71.57
2023-06-30T00:22:54.190Z,70.61
2023-06-30T00:25:22.025Z,70.84
2023-06-30T00:27:51.407Z,70.66
2023-06-30T00:30:19.779Z,70.74
2023-06-30T00:32:48.883Z,71.33
2023-06-30T00:35:18.281Z,71.43
2023-06-30T00:37:49.079Z,71.80
2023-06-30T00:40:17.133Z,71.40
2023-06-30T00:42:45.852Z,72.33
2023-06-30T00:45:18.617Z,71.42
2023-06-30T00:47:46.941Z,71.98
2023-06-30T00:50:15.605Z,70.46
2023-06-30T00:52:46.139Z,70.17
2023-06-30T00:55:17.552Z,68.68
2023-06-30T00:57:49.515Z,68.61
2023-06-30T01:00:20.000Z,69.66
2023-06-30T01:02:54.485Z,71.90
2023-06-30T01:05:28.388Z,72.02
2023-06-30T01:08:05.248Z,70.66
2023-06-30T01:10:37.445Z,71.64
2023-06-30T01:13:08.967Z,71.24
2023-06-30T01:15:38.907Z,70.92
2023-06-30T01:18:09.908Z,70.79
2023-06-30T01:20:41.737Z,71.58
2023-06-30T01:23:14.769Z,71.38
2023-06-30T01:25:45.253Z,73.08
2023-06-30T01:30:44.828Z,72.97
2023-06-30T01:33:13.424Z,72.12
2023-06-30T01:35:43.267Z,71.93
2023-06-30T01:38:11.565Z,72.14
2023-06-30T01:40:39.770Z,71.76
2023-06-30T01:43:11.772Z,72.50
2023-06-30T01:45:41.645Z,72.89
2023-06-30T01:48:11.057Z,72.83
2023-06-30T01:50:41.039Z,72.23
2023-06-30T01:53:09.179Z,71.77
2023-06-30T01:55:38.248Z,73.04
2023-06-30T01:58:06.222Z,71.88
2023-06-30T02:00:35.714Z,71.35
2023-06-30T02:03:04.029Z,72.24
2023-06-30T02:05:32.687Z,72.07
2023-06-30T02:08:00.689Z,71.65
2023-06-30T02:10:29.060Z,71.10
2023-06-30T02:12:57.502Z,71.51
2023-06-30T02:15:26.839Z,70.51
2023-06-30T02:17:56.204Z,70.68
2023-06-30T02:20:25.938Z,71.20
2023-06-30T02:22:54.499Z,72.95
2023-06-30T02:25:22.849Z,72.64
2023-06-30T02:27:53.516Z,73.16
2023-06-30T02:30:21.506Z,72.79
2023-06-30T02:32:49.602Z,72.75
2023-06-30T02:35:19.719Z,72.36
2023-06-30T02:37:47.629Z,72.32
2023-06-30T02:40:15.782Z,72.20
2023-06-30T02:42:43.729Z,72.49
2023-06-30T02:45:12.287Z,72.73
2023-06-30T02:47:41.723Z,72.98
2023-06-30T02:50:10.600Z,72.39
2023-06-30T02:52:41.194Z,73.06
2023-06-30T02:55:10.185Z,72.98
2023-06-30T02:57:40.359Z,73.31
2023-06-30T03:00:11.070Z,73.07
2023-06-30T03:02:39.274Z,72.56
2023-06-30T03:05:09.096Z,71.82
2023-06-30T03:07:37.105Z,72.52
2023-06-30T03:10:07.709Z,71.68
2023-06-30T03:12:35.637Z,72.12
2023-06-30T03:15:05.369Z,71.58
2023-06-30T03:17:34.669Z,72.73
2023-06-30T03:20:10.029Z,72.37
2023-06-30T03:22:37.912Z,72.75
2023-06-30T03:25:09.841Z,71.90
2023-06-30T03:27:38.334Z,72.08
2023-06-30T03:30:08.875Z,73.15
2023-06-30T03:32:36.709Z,72.90
2023-06-30T03:35:06.115Z,72.91
2023-06-30T03:37:34.533Z,72.63
2023-06-30T03:40:06.191Z,72.91
2023-06-30T03:42:35.804Z,72.04
2023-06-30T03:45:06.708Z,72.26
2023-06-30T03:47:34.632Z,73.60
2023-06-30T03:50:02.954Z,72.31
2023-06-30T03:52:30.954Z,73.21
2023-06-30T03:55:00.429Z,72.29
2023-06-30T03:57:28.626Z,72.05
2023-06-30T03:59:59.108Z,74.10
2023-06-30T04:02:27.745Z,77.10
2023-06-30T04:04:56.963Z,80.53
2023-06-30T04:07:25.555Z,83.08
2023-06-30T04:09:53.844Z,84.38
2023-06-30T04:12:23.393Z,84.69
2023-06-30T04:14:51.872Z,87.37
2023-06-30T04:17:22.728Z,88.17
2023-06-30T04:19:50.565Z,88.10
2023-06-30T04:22:19.472Z,88.33
2023-06-30T04:24:47.858Z,88.59
2023-06-30T04:27:20.877Z,88.08
2023-06-30T04:29:50.278Z,88.29
2023-06-30T04:33:20.770Z,100.00
2023-06-30T04:36:50.455Z,100.00
2023-06-30T04:40:17.254Z,100.00
2023-06-30T04:43:45.410Z,100.00
2023-06-30T04:47:13.334Z,100.00
2023-06-30T04:50:42.598Z,100.00
2023-06-30T04:54:11.101Z,100.00
2023-06-30T04:57:37.696Z,100.00
2023-06-30T05:01:10.194Z,100.00
2023-06-30T05:04:36.835Z,100.00
2023-06-30T05:08:06.642Z,100.00
2023-06-30T05:11:33.581Z,100.00
2023-06-30T05:15:00.472Z,100.00
2023-06-30T05:18:28.448Z,100.00
2023-06-30T05:21:55.119Z,100.00
2023-06-30T05:25:25.189Z,100.00
2023-06-30T05:29:03.393Z,100.00
2023-06-30T05:32:31.161Z,100.00
2023-06-30T05:35:57.794Z,100.00
2023-06-30T05:39:27.092Z,100.00
2023-06-30T05:42:54.284Z,100.00
2023-06-30T05:46:21.641Z,100.00
2023-06-30T05:49:49.527Z,100.00
2023-06-30T05:53:16.306Z,100.00
2023-06-30T05:56:44.317Z,100.00
2023-06-30T06:00:12.192Z,100.00
2023-06-30T06:03:40.314Z,100.00
2023-06-30T06:07:07.061Z,100.00
2023-06-30T06:10:34.482Z,100.00
2023-06-30T06:14:03.886Z,100.00
2023-06-30T06:17:04.339Z,88.29
2023-06-30T06:19:32.497Z,81.81
2023-06-30T06:22:01.681Z,83.52
2023-06-30T06:24:30.178Z,82.79
2023-06-30T06:27:01.199Z,83.46
2023-06-30T06:29:30.913Z,81.84
2023-06-30T06:32:01.841Z,79.97
2023-06-30T06:34:29.742Z,79.82
2023-06-30T06:36:58.917Z,81.63
2023-06-30T06:39:28.068Z,80.02
2023-06-30T06:41:57.738Z,79.48
2023-06-30T06:44:25.562Z,79.25
2023-06-30T06:47:34.165Z,78.43
2023-06-30T06:50:04.184Z,78.40
2023-06-30T06:52:35.913Z,77.89
2023-06-30T06:55:05.372Z,75.95
2023-06-30T06:57:33.351Z,77.64
2023-06-30T07:00:05.792Z,74.81
2023-06-30T07:02:35.305Z,74.82
2023-06-30T07:05:05.028Z,74.22
2023-06-30T07:07:34.312Z,77.35
2023-06-30T07:10:04.267Z,76.71
2023-06-30T07:12:35.377Z,76.06
2023-06-30T07:15:04.973Z,76.38
2023-06-30T07:17:35.226Z,73.93
2023-06-30T07:20:04.008Z,75.32
2023-06-30T07:22:34.415Z,74.81
2023-06-30T07:25:03.846Z,73.43
2023-06-30T07:27:32.492Z,74.63
2023-06-30T07:30:00.739Z,74.36
2023-06-30T07:32:28.814Z,71.49
2023-06-30T07:34:58.506Z,73.55
2023-06-30T07:37:26.920Z,71.92
2023-06-30T07:40:00.074Z,71.92
2023-06-30T07:42:35.707Z,71.77
2023-06-30T07:45:03.740Z,71.54
2023-06-30T07:47:32.604Z,73.62
2023-06-30T07:50:02.544Z,71.96
2023-06-30T07:52:30.978Z,72.21
2023-06-30T07:54:59.727Z,72.55
2023-06-30T07:57:30.228Z,72.00
2023-06-30T07:59:58.686Z,71.19
2023-06-30T08:02:26.914Z,72.96
2023-06-30T08:04:57.711Z,71.22
2023-06-30T08:10:12.315Z,70.16
2023-06-30T08:12:49.212Z,68.90
2023-06-30T08:15:17.481Z,69.87
2023-06-30T08:17:54.222Z,70.79
2023-06-30T08:20:24.987Z,68.71
2023-06-30T08:22:58.673Z,69.24
2023-06-30T08:25:28.314Z,70.06
2023-06-30T08:27:59.207Z,69.16
2023-06-30T08:30:28.815Z,70.83
2023-06-30T08:33:01.344Z,71.36
2023-06-30T08:35:30.365Z,71.43
2023-06-30T08:38:03.640Z,72.20
2023-06-30T08:40:33.585Z,72.43
2023-06-30T08:43:05.019Z,73.41
2023-06-30T08:45:34.334Z,73.65
2023-06-30T08:48:07.832Z,73.49
2023-06-30T08:50:36.493Z,73.22
2023-06-30T08:53:13.958Z,72.12
2023-06-30T08:55:42.519Z,71.99
2023-06-30T08:58:21.095Z,72.07
2023-06-30T09:00:55.530Z,72.28
2023-06-30T09:03:26.542Z,73.35
2023-06-30T09:05:57.131Z,71.94
2023-06-30T09:08:35.600Z,72.90
2023-06-30T09:11:08.762Z,71.11
2023-06-30T09:13:40.958Z,72.58
2023-06-30T09:16:19.191Z,71.91
2023-06-30T09:18:49.503Z,72.50
2023-06-30T09:21:20.115Z,72.61
2023-06-30T09:23:54.519Z,71.93
2023-06-30T09:26:25.132Z,72.54
2023-06-30T09:28:57.277Z,72.18
2023-06-30T09:31:33.644Z,73.04
2023-06-30T09:34:14.034Z,71.54
2023-06-30T09:36:50.590Z,71.66
2023-06-30T09:39:23.312Z,71.09
2023-06-30T09:41:52.976Z,70.76
2023-06-30T09:44:22.699Z,71.05
2023-06-30T09:46:53.605Z,73.21
2023-06-30T09:49:31.243Z,70.56
2023-06-30T09:52:02.034Z,70.46
2023-06-30T09:54:44.503Z,70.08
2023-06-30T09:57:13.992Z,68.50
2023-06-30T09:59:42.782Z,69.23
2023-06-30T10:02:17.218Z,70.34
2023-06-30T10:04:45.968Z,68.82
2023-06-30T10:07:16.000Z,69.21
2023-06-30T10:09:49.835Z,68.79
2023-06-30T10:12:22.539Z,68.81
2023-06-30T10:14:53.154Z,69.37
2023-06-30T10:17:21.595Z,70.09
2023-06-30T10:19:51.414Z,69.77
2023-06-30T10:22:20.081Z,70.63
2023-06-30T10:24:51.377Z,71.58
2023-06-30T10:27:21.843Z,71.34
2023-06-30T10:29:54.382Z,72.20
2023-06-30T10:32:22.921Z,72.98
2023-06-30T10:34:55.486Z,72.92
2023-06-30T10:37:28.265Z,72.04
2023-06-30T10:39:58.722Z,72.61
2023-06-30T10:42:31.749Z,73.62
2023-06-30T10:45:01.488Z,72.82
2023-06-30T10:47:30.257Z,71.16
2023-06-30T10:49:59.166Z,70.53
2023-06-30T10:52:29.532Z,69.77
2023-06-30T10:55:08.078Z,69.22
2023-06-30T10:57:39.058Z,68.15
2023-06-30T11:00:09.074Z,67.67
2023-06-30T11:02:38.246Z,68.01
2023-06-30T11:05:26.527Z,67.67
2023-06-30T11:08:05.139Z,67.65
2023-06-30T11:10:49.857Z,67.52
2023-06-30T11:13:18.338Z,67.42
2023-06-30T11:15:53.659Z,66.94
2023-06-30T11:18:25.444Z,67.34
2023-06-30T11:21:01.360Z,68.39
2023-06-30T11:23:32.020Z,68.09
2023-06-30T11:26:18.137Z,68.14
2023-06-30T11:28:48.832Z,66.83
2023-06-30T11:31:20.287Z,67.00
2023-06-30T11:34:00.175Z,66.87
2023-06-30T11:36:32.242Z,65.09
2023-06-30T11:39:03.686Z,64.13
2023-06-30T11:41:36.230Z,63.32
2023-06-30T11:44:05.365Z,62.91
2023-06-30T11:46:37.792Z,62.79
2023-06-30T11:49:06.875Z,63.45
2023-06-30T11:51:34.997Z,63.06
2023-06-30T11:54:08.683Z,63.44
2023-06-30T11:56:40.950Z,62.44
2023-06-30T11:59:09.862Z,61.24
2023-06-30T12:01:38.771Z,61.47
2023-06-30T12:04:35.325Z,60.34
2023-06-30T12:07:06.723Z,60.00
2023-06-30T12:09:36.979Z,60.20
2023-06-30T12:12:08.891Z,61.54
2023-06-30T12:14:46.026Z,57.66
2023-06-30T12:17:14.125Z,60.12
2023-06-30T12:19:49.313Z,58.67
2023-06-30T12:22:26.158Z,58.87
2023-06-30T12:24:57.567Z,58.19
2023-06-30T12:27:31.449Z,57.99
2023-06-30T12:30:00.321Z,57.94
2023-06-30T12:32:32.519Z,58.27
2023-06-30T12:35:07.655Z,57.80
2023-06-30T12:37:36.170Z,59.87
2023-06-30T12:40:07.051Z,57.18
2023-06-30T12:42:36.982Z,58.65
2023-06-30T12:45:09.418Z,60.37
2023-06-30T12:47:38.435Z,58.08
2023-06-30T12:50:07.892Z,58.26
2023-06-30T12:52:37.386Z,59.58
2023-06-30T12:55:07.464Z,58.29
2023-06-30T12:57:37.473Z,56.13
2023-06-30T13:00:09.645Z,56.08
2023-06-30T13:02:43.227Z,54.09
2023-06-30T13:05:19.290Z,53.44
2023-06-30T13:07:49.534Z,53.77
2023-06-30T13:10:18.076Z,52.10
2023-06-30T13:12:54.104Z,52.20
2023-06-30T13:15:23.712Z,50.85
2023-06-30T13:17:52.116Z,50.29
2023-06-30T13:20:20.573Z,51.53
2023-06-30T13:23:03.270Z,50.56
2023-06-30T13:25:37.941Z,52.82
2023-06-30T13:28:14.622Z,54.67
2023-06-30T13:30:46.161Z,54.51
2023-06-30T13:33:15.013Z,55.31
2023-06-30T13:35:49.537Z,54.00
2023-06-30T13:38:17.745Z,51.09
2023-06-30T13:40:50.146Z,51.55
2023-06-30T13:43:20.540Z,48.88
2023-06-30T13:45:48.681Z,47.67
2023-06-30T13:48:17.870Z,49.76
2023-06-30T13:50:46.414Z,50.96
2023-06-30T13:53:14.904Z,47.58
2023-06-30T13:55:42.930Z,46.99
2023-06-30T13:58:15.730Z,47.04
2023-06-30T14:00:48.364Z,46.50
2023-06-30T14:03:19.118Z,47.95
2023-06-30T14:05:51.582Z,51.07
2023-06-30T14:08:22.048Z,49.05
2023-06-30T14:10:53.637Z,52.14
2023-06-30T14:13:23.063Z,51.19
2023-06-30T14:16:02.763Z,48.36
2023-06-30T14:18:30.918Z,49.78
2023-06-30T14:20:59.502Z,49.45
2023-06-30T14:23:28.167Z,48.46
2023-06-30T14:25:56.992Z,49.71
2023-06-30T14:28:26.978Z,48.66
2023-06-30T14:30:58.987Z,48.53
2023-06-30T14:33:35.145Z,49.22
2023-06-30T14:36:04.709Z,50.40
2023-06-30T14:38:33.664Z,49.09
2023-06-30T14:41:03.217Z,50.84
2023-06-30T14:43:31.341Z,49.89
2023-06-30T14:46:01.103Z,49.39
2023-06-30T14:48:33.281Z,49.06
2023-06-30T14:51:01.295Z,50.03
2023-06-30T14:53:37.525Z,48.94
2023-06-30T14:56:06.346Z,51.77
2023-06-30T14:58:34.574Z,49.82
2023-06-30T15:01:04.362Z,49.09
2023-06-30T15:03:33.472Z,48.96
2023-06-30T15:06:06.245Z,49.60
2023-06-30T15:08:35.432Z,49.02
2023-06-30T15:11:04.081Z,48.58
2023-06-30T15:13:33.636Z,47.11
2023-06-30T15:16:18.670Z,46.65
2023-06-30T15:19:00.348Z,48.75
2023-06-30T15:21:44.369Z,47.44
2023-06-30T15:24:13.376Z,48.97
2023-06-30T15:26:42.704Z,47.07
2023-06-30T15:29:16.439Z,46.79
2023-06-30T15:31:46.596Z,45.92
2023-06-30T15:34:18.236Z,50.18
2023-06-30T15:36:51.763Z,49.77
2023-06-30T15:39:29.963Z,50.39
2023-06-30T15:41:58.189Z,51.97
2023-06-30T15:44:27.736Z,53.14
2023-06-30T15:47:00.523Z,53.87
2023-06-30T15:49:32.304Z,53.95
2023-06-30T15:52:00.904Z,53.43
2023-06-30T15:54:29.454Z,52.59
2023-06-30T15:57:04.309Z,52.96
2023-06-30T15:59:34.325Z,52.69
2023-06-30T16:02:05.278Z,52.65
2023-06-30T16:04:34.064Z,52.26
2023-06-30T16:07:02.140Z,52.49
2023-06-30T16:09:32.203Z,52.60
2023-06-30T16:12:07.471Z,51.71
2023-06-30T16:14:35.820Z,53.77
2023-06-30T16:17:06.526Z,53.28
2023-06-30T16:19:36.456Z,52.54
2023-06-30T16:22:08.376Z,52.13
2023-06-30T16:24:39.439Z,51.44
2023-06-30T16:27:09.557Z,51.60
2023-06-30T16:29:38.315Z,52.06
2023-06-30T16:32:16.302Z,51.93
2023-06-30T16:34:44.550Z,51.70
2023-06-30T16:37:14.231Z,50.57
2023-06-30T16:39:42.194Z,50.26
2023-06-30T16:42:10.085Z,50.38
2023-06-30T16:44:38.537Z,50.50
2023-06-30T16:47:11.939Z,51.50
2023-06-30T16:49:40.324Z,52.70
2023-06-30T16:52:09.445Z,54.46
2023-06-30T16:54:38.003Z,54.14
2023-06-30T16:57:07.924Z,54.37
2023-06-30T16:59:35.773Z,55.01
2023-06-30T17:02:05.227Z,55.17
2023-06-30T17:04:38.593Z,55.40
2023-06-30T17:07:07.823Z,55.43
2023-06-30T17:09:39.101Z,54.97
2023-06-30T17:12:08.438Z,54.45
2023-06-30T17:14:39.513Z,54.05
2023-06-30T17:17:08.316Z,53.86
2023-06-30T17:19:37.855Z,53.48
2023-06-30T17:22:10.220Z,53.50
2023-06-30T17:24:38.917Z,53.28
2023-06-30T17:27:08.414Z,53.22
2023-06-30T17:29:36.344Z,53.41
2023-06-30T17:32:05.215Z,55.00
2023-06-30T17:34:36.233Z,53.92
2023-06-30T17:37:09.307Z,54.64
2023-06-30T17:39:38.703Z,52.63
2023-06-30T17:42:07.680Z,53.07
2023-06-30T17:44:42.527Z,51.33
2023-06-30T17:47:13.614Z,48.97
2023-06-30T17:49:43.178Z,50.29
2023-06-30T17:52:12.789Z,52.60
2023-06-30T17:54:45.122Z,52.66
2023-06-30T17:57:14.357Z,48.30
2023-06-30T17:59:43.016Z,47.50
2023-06-30T18:02:11.541Z,43.99
2023-06-30T18:04:41.168Z,43.36
2023-06-30T18:07:13.106Z,40.85
2023-06-30T18:09:47.638Z,42.65
2023-06-30T18:12:15.880Z,41.44
2023-06-30T18:14:44.199Z,41.29
2023-06-30T18:17:16.427Z,41.21
2023-06-30T18:19:45.244Z,43.21
2023-06-30T18:22:14.781Z,40.22
2023-06-30T18:24:44.502Z,40.01
2023-06-30T18:27:12.442Z,39.52
2023-06-30T18:29:43.054Z,39.35
2023-06-30T18:32:12.079Z,40.22
2023-06-30T18:34:40.538Z,38.86
2023-06-30T18:37:09.072Z,39.49
2023-06-30T18:39:37.162Z,39.82
2023-06-30T18:42:09.090Z,40.83
2023-06-30T18:44:37.945Z,39.35
2023-06-30T18:47:08.025Z,40.11
2023-06-30T18:49:36.299Z,40.33
2023-06-30T18:52:07.328Z,41.70
2023-06-30T18:54:35.555Z,40.43
2023-06-30T18:57:06.066Z,40.82
2023-06-30T18:59:35.547Z,41.39
2023-06-30T19:02:03.810Z,41.24
2023-06-30T19:04:31.781Z,41.09
2023-06-30T19:06:59.954Z,41.57
2023-06-30T19:09:29.607Z,42.05
2023-06-30T19:11:59.515Z,42.35
2023-06-30T19:14:27.617Z,43.71
2023-06-30T19:16:57.156Z,43.64
2023-06-30T19:19:27.254Z,42.84
2023-06-30T19:21:55.010Z,43.00
2023-06-30T19:24:22.983Z,44.61
2023-06-30T19:26:51.248Z,43.99
2023-06-30T19:29:19.669Z,43.51
2023-06-30T19:31:47.590Z,44.22
2023-06-30T19:34:17.448Z,45.17
2023-06-30T19:36:45.364Z,44.55
2023-06-30T19:39:15.941Z,45.95
2023-06-30T19:41:43.780Z,45.65
2023-06-30T19:44:13.936Z,45.63
2023-06-30T19:46:42.162Z,46.70
2023-06-30T19:49:10.254Z,47.27
2023-06-30T19:51:39.471Z,45.96
2023-06-30T19:54:08.443Z,46.13
2023-06-30T19:56:38.151Z,45.87
2023-06-30T19:59:06.397Z,46.58
2023-06-30T20:01:34.274Z,47.12
2023-06-30T20:04:04.041Z,46.47
2023-06-30T20:06:31.999Z,46.65
2023-06-30T20:09:02.116Z,47.47
2023-06-30T20:11:31.272Z,47.95
2023-06-30T20:13:59.147Z,47.88
2023-06-30T20:16:27.483Z,48.40
2023-06-30T20:18:56.171Z,49.30
2023-06-30T20:21:24.747Z,50.18
2023-06-30T20:23:52.920Z,53.06
2023-06-30T20:26:23.430Z,53.74
2023-06-30T20:28:51.902Z,54.06
2023-06-30T20:31:20.478Z,54.36
2023-06-30T20:33:49.516Z,54.98
2023-06-30T20:36:17.681Z,55.60
2023-06-30T20:38:46.126Z,56.96
2023-06-30T20:41:15.101Z,57.22
2023-06-30T20:43:47.089Z,56.41
2023-06-30T20:46:15.399Z,57.09
2023-06-30T20:48:43.700Z,56.65
2023-06-30T20:51:12.356Z,56.37
2023-06-30T20:53:42.082Z,56.67
2023-06-30T20:56:09.878Z,57.51
2023-06-30T20:58:38.205Z,58.13
2023-06-30T21:01:07.688Z,58.42
2023-06-30T21:03:36.237Z,58.12
2023-06-30T21:06:05.474Z,58.26
2023-06-30T21:08:34.341Z,58.22
2023-06-30T21:11:02.548Z,58.22
2023-06-30T21:13:30.394Z,58.74
2023-06-30T21:15:59.916Z,59.31
2023-06-30T21:18:29.530Z,59.32
2023-06-30T21:21:00.949Z,59.76
2023-06-30T21:23:28.918Z,60.19
2023-06-30T21:25:56.699Z,60.76
2023-06-30T21:28:24.994Z,61.29
2023-06-30T21:30:53.808Z,61.83
2023-06-30T21:33:24.205Z,62.12
2023-06-30T21:35:53.883Z,62.38
2023-06-30T21:38:22.673Z,62.79
2023-06-30T21:40:50.787Z,63.21
2023-06-30T21:43:19.171Z,62.43
2023-06-30T21:45:47.741Z,61.55
2023-06-30T21:48:15.954Z,61.41
2023-06-30T21:50:43.833Z,62.23
2023-06-30T21:53:13.905Z,62.05
2023-06-30T21:55:41.859Z,62.75
2023-06-30T21:58:23.130Z,60.70
2023-06-30T22:00:58.184Z,61.04
2023-06-30T22:03:26.700Z,59.84
2023-06-30T22:05:56.546Z,60.11
2023-06-30T22:08:26.853Z,64.58
2023-06-30T22:10:55.976Z,65.09
2023-06-30T22:13:24.822Z,64.41
2023-06-30T22:15:55.092Z,66.68
2023-06-30T22:18:23.307Z,66.67
2023-06-30T22:20:51.558Z,67.23
2023-06-30T22:23:19.429Z,68.04
2023-06-30T22:25:51.264Z,67.93
2023-06-30T22:28:20.971Z,67.12
2023-06-30T22:30:49.271Z,67.61
2023-06-30T22:33:19.400Z,68.58
2023-06-30T22:35:51.766Z,68.82
2023-06-30T22:38:19.853Z,69.54
2023-06-30T22:40:52.358Z,68.63
2023-06-30T22:43:21.237Z,69.80
2023-06-30T22:45:54.185Z,71.34
2023-06-30T22:48:23.241Z,71.42
2023-06-30T22:50:54.890Z,70.58
2023-06-30T22:53:22.916Z,70.38
2023-06-30T22:55:53.058Z,70.80
2023-06-30T22:58:21.346Z,72.51
2023-06-30T23:00:49.625Z,71.54
2023-06-30T23:03:18.647Z,71.49
2023-06-30T23:05:49.859Z,71.09
2023-06-30T23:08:17.749Z,71.10
2023-06-30T23:10:47.327Z,73.13
2023-06-30T23:13:21.273Z,70.98
2023-06-30T23:15:50.520Z,69.40
2023-06-30T23:18:21.058Z,69.73
2023-06-30T23:20:53.454Z,67.22
2023-06-30T23:23:28.665Z,69.49
2023-06-30T23:25:56.652Z,69.96
2023-06-30T23:28:31.622Z,69.89
2023-06-30T23:31:03.150Z,68.73
2023-06-30T23:33:32.061Z,69.20
2023-06-30T23:36:00.177Z,68.97
2023-06-30T23:38:29.068Z,70.24
2023-06-30T23:40:57.812Z,70.88
2023-06-30T23:43:28.367Z,71.37
2023-06-30T23:45:58.350Z,70.70
2023-06-30T23:48:28.750Z,70.64
2023-06-30T23:50:58.335Z,72.02
2023-06-30T23:53:28.608Z,72.72
2023-06-30T23:56:07.111Z,72.96
2023-06-30T23:58:41.759Z,71.73
